Time;durP1;ratioP1;P1;durP2;ratioP2;P2;SDS_P1;SDS_P2;PMS_P1;PMS_P2;Temp;Humidity;BMP_temperature;BMP_pressure;BME280_temperature;BME280_humidity;BME280_pressure;Samples;Min_cycle;Max_cycle;Signal;HPM_P1;HPM_P2
2022/07/07 00:02:26;;;;;;;3.73;2.03;;;21.90;65.90;;;;;;4991239;28;21196;-76
2022/07/07 00:04:52;;;;;;;3.80;1.23;;;21.90;66.30;;;;;;4992912;28;20757;-77
2022/07/07 00:07:19;;;;;;;3.20;1.63;;;21.90;66.50;;;;;;4992726;28;20684;-76
2022/07/07 00:09:44;;;;;;;2.20;1.10;;;21.90;66.90;;;;;;4992591;28;20581;-77
2022/07/07 00:12:11;;;;;;;3.73;1.17;;;21.90;67.10;;;;;;4992480;28;20937;-77
2022/07/07 00:14:36;;;;;;;2.63;1.00;;;21.90;67.20;;;;;;4992630;28;20619;-77
2022/07/07 00:17:03;;;;;;;3.23;1.20;;;21.90;67.50;;;;;;4996437;28;20580;-76
2022/07/07 00:19:29;;;;;;;3.60;1.30;;;21.80;67.70;;;;;;4993328;28;20651;-77
2022/07/07 00:21:55;;;;;;;2.90;1.07;;;21.80;68.20;;;;;;4991690;28;21125;-77
2022/07/07 00:24:20;;;;;;;2.90;1.20;;;21.80;68.40;;;;;;4992537;28;20587;-77
2022/07/07 00:26:49;;;;;;;2.03;1.47;;;21.80;68.80;;;;;;4974893;28;20698;-76
2022/07/07 00:29:14;;;;;;;3.23;1.10;;;21.80;69.10;;;;;;4991005;28;20648;-76
2022/07/07 00:31:40;;;;;;;2.60;1.30;;;21.80;69.40;;;;;;4991467;28;20175;-76
2022/07/07 00:34:06;;;;;;;9.47;1.30;;;21.80;69.80;;;;;;4991178;28;20718;-78
2022/07/07 00:36:32;;;;;;;2.40;1.03;;;21.80;70.10;;;;;;4991083;28;20675;-77
2022/07/07 00:38:58;;;;;;;3.30;1.30;;;21.80;70.50;;;;;;4992289;28;20671;-76
2022/07/07 00:41:23;;;;;;;5.10;1.37;;;21.70;70.70;;;;;;4990050;28;20664;-77
2022/07/07 00:43:49;;;;;;;2.20;1.23;;;21.80;71.10;;;;;;4990781;28;20578;-76
2022/07/07 00:46:15;;;;;;;4.97;1.10;;;21.70;71.30;;;;;;4991955;28;20203;-75
2022/07/07 00:48:42;;;;;;;3.00;1.07;;;21.80;71.60;;;;;;4992032;28;20234;-76
2022/07/07 00:51:11;;;;;;;5.67;1.37;;;21.70;71.90;;;;;;4991427;28;20937;-77
2022/07/07 00:53:38;;;;;;;2.53;1.20;;;21.70;72.50;;;;;;4993962;28;20654;-76
2022/07/07 00:56:04;;;;;;;2.53;1.67;;;21.70;72.50;;;;;;4997397;28;20634;-76
2022/07/07 00:58:30;;;;;;;4.70;1.30;;;21.70;72.80;;;;;;4992036;28;21005;-76
2022/07/07 01:00:56;;;;;;;3.97;1.50;;;21.70;73.20;;;;;;4990084;28;20595;-76
2022/07/07 01:03:22;;;;;;;3.93;1.40;;;21.70;74.30;;;;;;4991009;28;20586;-76
2022/07/07 01:05:48;;;;;;;3.63;1.57;;;21.70;73.90;;;;;;4991995;28;20313;-76
2022/07/07 01:08:15;;;;;;;3.30;1.53;;;21.70;74.50;;;;;;4994822;28;20223;-76
2022/07/07 01:10:45;;;;;;;2.80;1.73;;;21.60;74.60;;;;;;4995178;28;20915;-76
2022/07/07 01:13:12;;;;;;;1.70;1.00;;;21.60;75.30;;;;;;4996028;28;20574;-76
2022/07/07 01:15:38;;;;;;;2.73;1.37;;;21.60;75.30;;;;;;4996140;28;20582;-76
2022/07/07 01:18:04;;;;;;;3.50;1.27;;;21.60;75.60;;;;;;4996091;28;20617;-75
2022/07/07 01:20:30;;;;;;;2.33;1.43;;;21.60;76.00;;;;;;4995257;28;20574;-76
2022/07/07 01:22:57;;;;;;;3.80;1.40;;;21.60;76.50;;;;;;4995805;28;20585;-76
2022/07/07 01:25:23;;;;;;;2.33;1.57;;;21.60;77.10;;;;;;4995775;28;20629;-76
2022/07/07 01:27:50;;;;;;;4.67;1.30;;;21.60;77.50;;;;;;4995517;28;20667;-76
2022/07/07 01:30:17;;;;;;;3.37;1.43;;;21.60;77.70;;;;;;4994400;28;20629;-76
2022/07/07 01:32:43;;;;;;;2.37;1.20;;;21.60;78.20;;;;;;4998262;28;20574;-76
2022/07/07 01:35:10;;;;;;;3.47;1.60;;;21.60;79.60;;;;;;4994765;28;20613;-76
2022/07/07 01:37:36;;;;;;;4.80;1.37;;;21.60;79.30;;;;;;4995590;28;20606;-76
2022/07/07 01:40:04;;;;;;;2.57;1.30;;;21.60;79.60;;;;;;4995140;28;20779;-75
2022/07/07 01:42:30;;;;;;;3.63;1.70;;;21.50;79.90;;;;;;4977137;28;20627;-76
2022/07/07 01:44:56;;;;;;;4.70;1.43;;;21.60;80.50;;;;;;4995322;28;20626;-76
2022/07/07 01:47:23;;;;;;;5.87;1.20;;;21.50;80.70;;;;;;4993933;28;21157;-76
2022/07/07 01:49:50;;;;;;;4.70;1.40;;;21.60;82.40;;;;;;4994862;28;20716;-77
2022/07/07 01:52:16;;;;;;;5.17;1.30;;;21.60;81.70;;;;;;4994738;28;20578;-77
2022/07/07 01:54:42;;;;;;;2.90;1.30;;;21.60;82.30;;;;;;4994305;28;20640;-77
2022/07/07 01:57:08;;;;;;;3.60;1.17;;;21.60;82.90;;;;;;4993974;28;20574;-77
2022/07/07 01:59:35;;;;;;;2.27;1.27;;;21.60;83.20;;;;;;4994765;28;20614;-76
2022/07/07 02:02:01;;;;;;;3.83;1.47;;;21.60;83.90;;;;;;4994179;28;20582;-77
2022/07/07 02:04:27;;;;;;;1.87;1.50;;;21.60;84.20;;;;;;4995387;28;20578;-76
2022/07/07 02:06:53;;;;;;;3.90;1.70;;;21.60;84.60;;;;;;4994177;28;21172;-76
2022/07/07 02:09:19;;;;;;;3.00;1.10;;;21.60;84.90;;;;;;4998693;28;20629;-76
2022/07/07 02:11:46;;;;;;;2.03;1.13;;;21.60;85.40;;;;;;4994092;28;21165;-76
2022/07/07 02:14:12;;;;;;;2.73;1.30;;;21.60;86.00;;;;;;4995095;28;20259;-77
2022/07/07 02:16:37;;;;;;;4.70;1.50;;;21.60;86.60;;;;;;4977572;28;20578;-77
2022/07/07 02:19:08;;;;;;;2.30;1.30;;;21.60;87.10;;;;;;4994584;28;20601;-77
2022/07/07 02:21:35;;;;;;;5.60;1.67;;;21.60;87.70;;;;;;4994121;28;20179;-77
2022/07/07 02:32:14;;;;;;;4.77;1.30;;;21.50;90.90;;;;;;4991191;28;20558;-76
2022/07/07 02:34:40;;;;;;;3.97;1.43;;;21.50;89.50;;;;;;4994149;28;20565;-76
2022/07/07 02:37:05;;;;;;;3.40;1.60;;;21.40;90.30;;;;;;4994520;28;20198;-76
2022/07/07 02:39:31;;;;;;;4.80;2.47;;;21.40;90.90;;;;;;4994282;28;20246;-77
2022/07/07 02:41:57;;;;;;;3.17;1.60;;;21.30;91.10;;;;;;4993293;28;20217;-77
2022/07/07 02:44:22;;;;;;;3.13;1.90;;;21.30;91.60;;;;;;4998978;28;20535;-76
2022/07/07 02:46:48;;;;;;;3.07;1.80;;;21.30;91.90;;;;;;4993458;28;20608;-77
2022/07/07 02:49:14;;;;;;;4.67;1.37;;;21.20;92.10;;;;;;4994387;28;20265;-76
2022/07/07 02:51:40;;;;;;;4.97;2.00;;;21.20;92.30;;;;;;4992818;28;20175;-77
2022/07/07 02:54:06;;;;;;;5.20;1.60;;;21.20;92.50;;;;;;4993653;28;20680;-76
2022/07/07 02:56:31;;;;;;;3.30;1.60;;;21.20;92.80;;;;;;4993856;28;20194;-76
2022/07/07 02:58:57;;;;;;;3.40;1.90;;;21.20;92.90;;;;;;5021753;23;20660;-78
2022/07/07 03:01:23;;;;;;;3.50;1.67;;;21.20;93.20;;;;;;4995784;28;20759;-78
2022/07/07 03:03:49;;;;;;;3.27;2.07;;;21.10;93.30;;;;;;4993625;28;20176;-78
2022/07/07 03:06:14;;;;;;;6.53;2.30;;;21.10;93.40;;;;;;4976508;28;20242;-78
2022/07/07 03:08:40;;;;;;;4.30;2.40;;;21.10;93.60;;;;;;4993613;28;20206;-78
2022/07/07 03:11:06;;;;;;;2.20;1.40;;;21.10;93.70;;;;;;4976612;28;20170;-78
2022/07/07 03:13:31;;;;;;;3.20;2.43;;;21.10;93.90;;;;;;4993546;28;20183;-78
2022/07/07 03:15:57;;;;;;;3.30;1.40;;;21.10;94.50;;;;;;4976563;28;20213;-78
2022/07/07 03:18:23;;;;;;;4.57;1.50;;;21.10;94.30;;;;;;4993877;28;20167;-79
2022/07/07 03:20:49;;;;;;;5.60;2.87;;;21.10;94.80;;;;;;4976232;28;20275;-79
2022/07/07 03:23:15;;;;;;;7.27;3.00;;;21.10;94.60;;;;;;4993002;28;20666;-79
2022/07/07 03:25:40;;;;;;;2.97;1.80;;;21.10;94.80;;;;;;4960337;28;20768;-80
2022/07/07 03:28:06;;;;;;;3.97;1.90;;;21.10;95.00;;;;;;4993869;28;20222;-79
2022/07/07 03:30:32;;;;;;;3.00;2.10;;;21.10;95.30;;;;;;4993108;28;20191;-78
2022/07/07 03:32:58;;;;;;;2.80;2.23;;;21.10;95.50;;;;;;4993186;28;20650;-79
2022/07/07 03:35:24;;;;;;;3.60;2.23;;;21.10;95.70;;;;;;4976857;28;20617;-79
2022/07/07 03:37:49;;;;;;;2.93;1.53;;;21.10;95.80;;;;;;4976027;28;20183;-79
2022/07/07 03:40:15;;;;;;;2.27;1.30;;;21.10;96.00;;;;;;4993224;28;20248;-78
2022/07/07 03:42:41;;;;;;;3.00;1.70;;;21.10;96.20;;;;;;4993292;28;20582;-78
2022/07/07 03:45:08;;;;;;;3.63;1.33;;;21.10;96.30;;;;;;4975535;28;20226;-79
2022/07/07 03:47:34;;;;;;;2.17;1.30;;;21.10;96.30;;;;;;4976110;28;20570;-78
2022/07/07 03:49:59;;;;;;;2.57;1.20;;;21.20;96.50;;;;;;4992956;28;20605;-78
2022/07/07 03:52:25;;;;;;;1.90;1.07;;;21.20;96.60;;;;;;4993288;28;20641;-78
2022/07/07 03:54:51;;;;;;;4.30;1.67;;;21.20;96.70;;;;;;4993141;28;20178;-79
2022/07/07 03:57:17;;;;;;;2.93;1.10;;;21.20;96.80;;;;;;4993452;28;20163;-79
2022/07/07 03:59:42;;;;;;;2.27;1.13;;;21.20;96.90;;;;;;4975266;28;20245;-79
2022/07/07 04:02:08;;;;;;;2.80;1.20;;;21.30;97.10;;;;;;4993240;28;20178;-79
2022/07/07 04:04:34;;;;;;;2.53;1.20;;;21.30;97.10;;;;;;4975525;28;20179;-79
2022/07/07 04:07:00;;;;;;;4.90;1.20;;;21.30;97.20;;;;;;4975363;28;20593;-72
2022/07/07 04:09:26;;;;;;;1.80;1.00;;;21.30;97.40;;;;;;4992725;28;20626;-73
2022/07/07 04:11:52;;;;;;;2.53;0.90;;;21.40;97.60;;;;;;4992426;28;20574;-73
2022/07/07 04:14:18;;;;;;;2.23;1.10;;;21.40;97.80;;;;;;4992569;28;20230;-73
2022/07/07 04:16:44;;;;;;;2.27;1.13;;;21.40;97.80;;;;;;4975144;28;20574;-73
2022/07/07 04:19:10;;;;;;;2.00;1.27;;;21.40;97.90;;;;;;4992589;28;20598;-73
2022/07/07 04:21:35;;;;;;;2.17;1.10;;;21.40;98.10;;;;;;4974530;28;20182;-72
2022/07/07 04:24:01;;;;;;;2.13;1.17;;;21.40;98.20;;;;;;4991957;28;20194;-72
2022/07/07 04:26:27;;;;;;;2.90;1.50;;;21.40;98.40;;;;;;4958862;28;20199;-73
2022/07/07 04:28:52;;;;;;;2.90;1.10;;;21.40;98.60;;;;;;4992495;28;20606;-73
2022/07/07 04:31:18;;;;;;;2.23;1.10;;;21.40;98.70;;;;;;4973443;28;20601;-73
2022/07/07 04:33:44;;;;;;;1.90;1.00;;;21.40;98.90;;;;;;4982253;28;20549;-73
2022/07/07 04:36:11;;;;;;;3.97;1.47;;;21.40;99.10;;;;;;4974716;28;20180;-74
2022/07/07 04:38:37;;;;;;;3.17;1.17;;;21.40;99.30;;;;;;4958209;28;20717;-72
2022/07/07 04:41:03;;;;;;;2.40;1.33;;;21.40;99.50;;;;;;4979143;28;20609;-73
2022/07/07 04:43:28;;;;;;;2.03;1.17;;;21.40;99.50;;;;;;4990955;28;20574;-73
2022/07/07 04:45:54;;;;;;;3.10;1.30;;;21.40;99.70;;;;;;4992345;28;20199;-72
2022/07/07 04:48:20;;;;;;;2.37;1.23;;;21.40;99.80;;;;;;4974708;28;20171;-72
2022/07/07 04:50:46;;;;;;;2.57;1.17;;;21.40;99.90;;;;;;4974181;28;20193;-72
2022/07/07 04:53:11;;;;;;;2.00;1.00;;;21.40;99.90;;;;;;4974101;28;20185;-73
2022/07/07 04:55:37;;;;;;;2.10;1.23;;;21.50;99.90;;;;;;4992294;28;20257;-73
2022/07/07 04:58:03;;;;;;;3.70;1.40;;;21.50;99.90;;;;;;4991597;28;20741;-74
2022/07/07 05:00:28;;;;;;;2.33;1.00;;;21.40;99.90;;;;;;4958264;28;20230;-75
2022/07/07 05:02:54;;;;;;;1.93;1.00;;;21.50;99.90;;;;;;4992142;28;20705;-74
2022/07/07 05:05:20;;;;;;;3.90;1.33;;;21.50;99.90;;;;;;4991891;28;20290;-74
2022/07/07 05:07:45;;;;;;;3.23;1.30;;;21.50;99.90;;;;;;4992096;28;20170;-73
2022/07/07 05:10:11;;;;;;;3.43;1.20;;;21.60;99.90;;;;;;4974288;28;20195;-75
2022/07/07 05:12:37;;;;;;;5.80;1.00;;;21.60;99.90;;;;;;4974694;28;20163;-75
2022/07/07 05:15:04;;;;;;;2.50;1.10;;;21.60;99.90;;;;;;4991626;28;20266;-74
2022/07/07 05:17:29;;;;;;;2.80;1.80;;;21.60;99.90;;;;;;4974714;28;20578;-74
2022/07/07 05:19:56;;;;;;;2.33;1.40;;;21.60;99.90;;;;;;4974175;28;20721;-74
2022/07/07 05:22:21;;;;;;;2.33;0.90;;;21.60;99.90;;;;;;4992016;28;20661;-73
2022/07/07 05:24:47;;;;;;;5.73;1.10;;;21.60;99.90;;;;;;4991165;28;20190;-73
2022/07/07 05:27:13;;;;;;;2.00;1.10;;;21.60;99.90;;;;;;4991688;28;20167;-73
2022/07/07 05:29:39;;;;;;;2.57;1.13;;;21.60;99.90;;;;;;4974094;28;20222;-79
2022/07/07 05:32:05;;;;;;;2.20;1.00;;;21.60;99.90;;;;;;4991629;28;20205;-79
2022/07/07 05:34:30;;;;;;;2.63;1.10;;;21.70;99.90;;;;;;4973903;28;20163;-78
2022/07/07 05:36:56;;;;;;;2.47;1.20;;;21.70;99.90;;;;;;4974407;28;20582;-77
2022/07/07 05:39:24;;;;;;;2.73;1.10;;;21.70;99.90;;;;;;4957866;28;20698;-79
2022/07/07 05:41:49;;;;;;;3.90;1.30;;;21.80;99.90;;;;;;4991705;28;20586;-79
2022/07/07 05:44:15;;;;;;;2.00;1.00;;;21.80;99.90;;;;;;4973978;28;20578;-79
2022/07/07 05:46:41;;;;;;;8.97;1.20;;;21.80;99.90;;;;;;4974159;28;20712;-79
2022/07/07 05:49:07;;;;;;;1.87;1.00;;;21.80;99.90;;;;;;4974025;28;20191;-79
2022/07/07 05:51:32;;;;;;;2.37;1.43;;;21.90;99.90;;;;;;4991680;28;20635;-79
2022/07/07 05:53:58;;;;;;;3.63;1.10;;;21.90;99.90;;;;;;4975736;28;20208;-79
2022/07/07 05:56:24;;;;;;;2.93;1.03;;;21.90;99.90;;;;;;4977885;28;20639;-79
2022/07/07 05:58:49;;;;;;;1.60;1.00;;;21.80;99.90;;;;;;4995512;28;20205;-79
2022/07/07 06:01:15;;;;;;;2.93;1.17;;;21.80;99.90;;;;;;4970531;28;20187;-79
2022/07/07 06:03:41;;;;;;;2.47;1.10;;;21.70;99.90;;;;;;4994409;28;20203;-79
2022/07/07 06:06:07;;;;;;;3.20;1.63;;;21.60;99.90;;;;;;4995111;28;20766;-79
2022/07/07 06:08:32;;;;;;;3.93;2.20;;;21.50;99.90;;;;;;4977774;28;20214;-78
2022/07/07 06:10:58;;;;;;;4.37;1.80;;;21.40;99.90;;;;;;4996502;28;20179;-78
2022/07/07 06:13:24;;;;;;;3.53;2.10;;;21.30;99.90;;;;;;4998618;28;20595;-78
2022/07/07 06:15:50;;;;;;;3.40;1.70;;;21.10;99.90;;;;;;4981931;28;20574;-78
2022/07/07 06:18:16;;;;;;;3.20;1.50;;;20.90;99.90;;;;;;4996895;28;21106;-78
2022/07/07 06:20:42;;;;;;;3.17;1.87;;;20.70;99.90;;;;;;4993077;28;20625;-78
2022/07/07 06:23:08;;;;;;;3.70;1.50;;;20.50;99.90;;;;;;4994177;28;20639;-78
2022/07/07 06:25:34;;;;;;;3.23;1.40;;;20.30;99.90;;;;;;4994293;28;20624;-78
2022/07/07 06:28:00;;;;;;;8.43;1.10;;;20.20;99.90;;;;;;4995625;28;20200;-78
2022/07/07 06:30:26;;;;;;;1.73;1.07;;;20.00;99.90;;;;;;4977501;28;20608;-77
2022/07/07 06:32:52;;;;;;;2.50;1.07;;;19.90;99.90;;;;;;4994653;28;20628;-77
2022/07/07 06:35:20;;;;;;;2.40;1.10;;;19.80;99.90;;;;;;4995598;28;20931;-77
2022/07/07 06:37:46;;;;;;;3.27;1.70;;;19.70;99.90;;;;;;4997923;28;20183;-77
2022/07/07 06:40:12;;;;;;;1.50;1.00;;;19.70;99.90;;;;;;4997358;28;21008;-77
2022/07/07 06:42:38;;;;;;;1.60;1.07;;;19.70;99.90;;;;;;4996501;28;20566;-77
2022/07/07 06:45:11;;;;;;;2.23;1.20;;;19.70;99.90;;;;;;4993465;28;20625;-77
2022/07/07 06:47:37;;;;;;;6.90;1.03;;;19.70;99.90;;;;;;4994272;28;20583;-77
2022/07/07 06:50:03;;;;;;;1.57;1.10;;;19.70;99.90;;;;;;4994309;28;20602;-77
2022/07/07 06:52:29;;;;;;;2.70;0.80;;;19.70;99.90;;;;;;4994711;28;20625;-77
2022/07/07 06:54:55;;;;;;;2.17;1.20;;;19.90;99.90;;;;;;4994264;28;20582;-77
2022/07/07 06:57:20;;;;;;;2.20;1.30;;;20.00;99.90;;;;;;4995296;28;20236;-77
2022/07/07 06:59:46;;;;;;;1.83;1.27;;;20.20;99.90;;;;;;4995178;28;20622;-78
2022/07/07 07:02:12;;;;;;;1.83;0.90;;;20.30;99.90;;;;;;4995345;28;20182;-77
2022/07/07 07:04:37;;;;;;;2.43;1.23;;;20.40;99.90;;;;;;4996226;28;20249;-77
2022/07/07 07:07:04;;;;;;;2.13;1.27;;;20.70;99.90;;;;;;4993886;28;20694;-78
2022/07/07 07:09:30;;;;;;;1.93;0.83;;;20.90;99.90;;;;;;4993552;28;20199;-79
2022/07/07 07:11:56;;;;;;;2.73;1.30;;;21.10;99.90;;;;;;4992774;28;20577;-78
2022/07/07 07:14:22;;;;;;;2.00;0.90;;;21.10;99.90;;;;;;4994293;28;20609;-78
2022/07/07 07:16:48;;;;;;;2.97;1.10;;;21.10;99.90;;;;;;4976670;28;20234;-79
2022/07/07 07:19:14;;;;;;;2.23;1.00;;;21.10;99.90;;;;;;4993771;28;21174;-79
2022/07/07 07:21:40;;;;;;;1.50;0.80;;;21.00;99.90;;;;;;4992642;28;20175;-78
2022/07/07 07:24:06;;;;;;;2.03;0.80;;;20.90;99.90;;;;;;4994551;28;20574;-79
2022/07/07 07:26:32;;;;;;;1.40;0.70;;;20.80;99.90;;;;;;4977214;28;20642;-79
2022/07/07 07:28:58;;;;;;;1.70;0.90;;;20.90;99.90;;;;;;4992702;28;20613;-79
2022/07/07 07:31:23;;;;;;;1.30;0.60;;;21.20;99.90;;;;;;4993999;28;20535;-79
2022/07/07 07:33:49;;;;;;;1.40;0.50;;;21.60;99.90;;;;;;4993481;28;20678;-79
2022/07/07 07:36:15;;;;;;;1.90;0.60;;;22.10;99.90;;;;;;4996086;28;20213;-78
2022/07/07 07:38:43;;;;;;;1.77;0.63;;;22.30;99.90;;;;;;4976687;28;21177;-77
2022/07/07 07:41:11;;;;;;;2.90;0.70;;;22.60;99.90;;;;;;4994104;28;20575;-77
2022/07/07 07:43:37;;;;;;;1.27;0.57;;;22.70;99.90;;;;;;4992151;28;20610;-78
2022/07/07 07:46:03;;;;;;;1.40;0.60;;;22.70;99.90;;;;;;4994103;28;20633;-77
2022/07/07 07:48:29;;;;;;;1.90;0.67;;;22.70;99.90;;;;;;4992407;28;21011;-78
2022/07/07 07:50:55;;;;;;;2.10;0.70;;;22.60;99.90;;;;;;4995237;28;20571;-78
2022/07/07 07:53:21;;;;;;;1.50;0.60;;;22.60;99.90;;;;;;4993860;28;20562;-79
2022/07/07 07:55:47;;;;;;;2.07;0.63;;;22.80;99.90;;;;;;4993116;28;20175;-79
2022/07/07 07:58:13;;;;;;;1.30;0.53;;;23.30;99.90;;;;;;4992949;28;20222;-79
2022/07/07 08:00:38;;;;;;;1.80;0.80;;;23.60;99.90;;;;;;4979752;28;20249;-81
2022/07/07 08:03:04;;;;;;;1.40;0.60;;;23.70;99.90;;;;;;4974913;28;20175;-80
2022/07/07 08:05:30;;;;;;;2.00;0.67;;;23.80;99.90;;;;;;4959323;28;20301;-80
2022/07/07 08:07:56;;;;;;;1.67;0.47;;;24.00;99.90;;;;;;4992399;28;21067;-80
2022/07/07 08:10:23;;;;;;;1.30;0.50;;;24.20;99.90;;;;;;4983148;28;21162;-80
2022/07/07 08:12:49;;;;;;;1.27;0.60;;;24.40;99.90;;;;;;4992614;28;20616;-80
2022/07/07 08:15:16;;;;;;;4.60;0.40;;;24.50;99.90;;;;;;4975036;28;20578;-81
2022/07/07 08:17:42;;;;;;;2.43;0.50;;;24.50;99.90;;;;;;4975190;28;20582;-82
2022/07/07 08:20:08;;;;;;;1.40;0.40;;;24.30;99.90;;;;;;4992440;28;20594;-81
2022/07/07 08:22:35;;;;;;;1.10;0.40;;;24.20;99.90;;;;;;4992762;28;20975;-75
2022/07/07 08:25:01;;;;;;;2.13;0.40;;;24.00;99.90;;;;;;4973822;28;21023;-75
2022/07/07 08:27:26;;;;;;;1.20;0.50;;;23.90;99.90;;;;;;4976125;28;20671;-74
2022/07/07 08:29:52;;;;;;;1.10;0.40;;;23.70;99.90;;;;;;4976323;28;20655;-76
2022/07/07 08:32:18;;;;;;;1.60;0.50;;;23.60;99.90;;;;;;4958911;28;20177;-75
2022/07/07 08:34:44;;;;;;;1.53;0.50;;;23.40;99.90;;;;;;4974611;28;20582;-75
2022/07/07 08:37:11;;;;;;;2.07;0.50;;;23.40;99.90;;;;;;4975352;28;20558;-75
2022/07/07 08:39:37;;;;;;;1.30;0.50;;;23.40;99.90;;;;;;4974313;28;20609;-75
2022/07/07 08:42:04;;;;;;;1.97;0.70;;;23.50;99.90;;;;;;4959262;28;20567;-76
2022/07/07 08:44:29;;;;;;;1.20;0.50;;;23.60;99.90;;;;;;4991571;28;21041;-75
2022/07/07 08:46:55;;;;;;;4.23;0.70;;;23.70;99.90;;;;;;4974413;28;20752;-75
2022/07/07 08:49:21;;;;;;;1.97;0.70;;;23.80;99.90;;;;;;4991936;28;20290;-75
2022/07/07 08:51:47;;;;;;;2.70;0.50;;;23.90;99.90;;;;;;4991771;28;20182;-75
2022/07/07 08:54:15;;;;;;;1.80;0.60;;;23.90;99.90;;;;;;4991387;28;20644;-75
2022/07/07 08:56:42;;;;;;;2.90;0.80;;;23.90;99.90;;;;;;4992369;28;20171;-75
2022/07/07 08:59:09;;;;;;;1.70;0.60;;;24.10;99.90;;;;;;4991735;28;20625;-75
2022/07/07 09:01:35;;;;;;;2.00;0.60;;;24.30;99.90;;;;;;4974385;28;20637;-76
2022/07/07 09:04:02;;;;;;;2.40;0.80;;;24.70;99.90;;;;;;4991814;28;21187;-75
2022/07/07 09:06:28;;;;;;;1.90;0.70;;;24.80;99.90;;;;;;4974836;28;20634;-75
2022/07/07 09:08:55;;;;;;;2.10;0.90;;;24.80;99.90;;;;;;4974482;28;20604;-75
2022/07/07 09:11:29;;;;;;;1.60;0.80;;;24.70;99.90;;;;;;4974557;28;20598;-75
2022/07/07 09:14:08;;;;;;;1.70;0.53;;;24.50;99.90;;;;;;4974211;28;20573;-75
2022/07/07 09:16:36;;;;;;;3.07;0.90;;;24.40;99.90;;;;;;4992238;28;20678;-75
2022/07/07 09:19:05;;;;;;;2.80;0.50;;;24.40;99.90;;;;;;4974556;28;20664;-75
2022/07/07 09:21:33;;;;;;;2.60;0.87;;;24.50;99.90;;;;;;4988717;28;20959;-75
2022/07/07 09:24:00;;;;;;;1.43;0.50;;;24.70;99.90;;;;;;4978753;28;20586;-75
2022/07/07 09:26:33;;;;;;;2.13;0.67;;;24.80;99.90;;;;;;4990716;28;20658;-75
2022/07/07 09:28:59;;;;;;;3.40;0.73;;;24.90;99.90;;;;;;4972484;28;20632;-75
2022/07/07 09:31:25;;;;;;;1.50;0.60;;;25.00;99.90;;;;;;4975410;28;21437;-74
2022/07/07 09:34:11;;;;;;;2.90;0.70;;;25.10;99.90;;;;;;4994833;28;20167;-74
2022/07/07 09:39:21;;;;;;;3.97;1.23;;;25.70;99.90;;;;;;4959306;28;20646;-74
2022/07/07 09:41:46;;;;;;;1.73;0.60;;;26.00;99.90;;;;;;4997622;28;20566;-74
2022/07/07 09:44:12;;;;;;;2.20;0.60;;;26.10;99.90;;;;;;4977517;28;20179;-74
2022/07/07 09:46:38;;;;;;;1.60;0.50;;;26.00;98.50;;;;;;4977889;28;20282;-74
2022/07/07 09:49:09;;;;;;;1.90;0.60;;;25.70;97.60;;;;;;4994620;28;20199;-75
2022/07/07 09:51:35;;;;;;;2.07;0.50;;;25.30;97.20;;;;;;4993229;28;20900;-75
2022/07/07 09:54:14;;;;;;;2.50;0.50;;;25.00;96.90;;;;;;4994470;28;20582;-75
2022/07/07 09:56:45;;;;;;;2.90;0.70;;;24.60;96.90;;;;;;4969871;28;20586;-75
2022/07/07 09:59:13;;;;;;;2.00;0.50;;;24.20;97.30;;;;;;4995137;28;20988;-76
2022/07/07 10:01:43;;;;;;;2.73;0.60;;;24.20;98.90;;;;;;4956721;28;20594;-76
2022/07/07 10:04:10;;;;;;;2.50;0.50;;;24.50;99.90;;;;;;4970243;28;20605;-77
2022/07/07 10:06:39;;;;;;;2.30;0.60;;;25.00;99.90;;;;;;4993025;28;20630;-76
2022/07/07 10:09:07;;;;;;;2.03;0.60;;;25.50;99.90;;;;;;4972637;28;20608;-76
2022/07/07 10:11:38;;;;;;;3.90;0.70;;;25.70;99.80;;;;;;4977515;28;20578;-76
2022/07/07 10:14:19;;;;;;;2.37;0.60;;;25.80;98.80;;;;;;4993961;28;20589;-77
2022/07/07 10:16:48;;;;;;;2.10;0.50;;;25.70;97.60;;;;;;4995405;28;20590;-77
2022/07/07 10:19:18;;;;;;;1.67;0.50;;;25.70;96.90;;;;;;4995535;28;21284;-76
2022/07/07 10:21:46;;;;;;;1.20;0.50;;;25.50;96.60;;;;;;4994432;28;20566;-76
2022/07/07 10:24:13;;;;;;;1.90;0.50;;;25.40;96.50;;;;;;4992507;28;21002;-76
2022/07/07 10:26:51;;;;;;;2.00;0.50;;;25.30;96.40;;;;;;4994214;28;20712;-75
2022/07/07 10:29:17;;;;;;;2.30;0.50;;;25.30;96.00;;;;;;4993727;28;20696;-75
2022/07/07 10:31:50;;;;;;;2.10;0.60;;;25.50;96.70;;;;;;4993750;28;20574;-75
2022/07/07 10:34:16;;;;;;;1.83;0.70;;;25.70;96.40;;;;;;4994238;28;20978;-74
2022/07/07 10:36:51;;;;;;;1.67;0.50;;;25.90;95.80;;;;;;4994451;28;20664;-75
2022/07/07 10:39:21;;;;;;;1.40;0.50;;;25.90;94.70;;;;;;4979572;28;20660;-75
2022/07/07 10:42:14;;;;;;;1.77;0.60;;;25.90;95.00;;;;;;4993063;28;20736;-75
2022/07/07 10:44:42;;;;;;;3.43;0.70;;;26.00;94.80;;;;;;4975032;28;20590;-75
2022/07/07 10:47:10;;;;;;;1.30;0.50;;;26.30;94.50;;;;;;4993719;28;21114;-75
2022/07/07 10:49:39;;;;;;;1.90;0.50;;;26.40;94.30;;;;;;4975814;28;20763;-76
2022/07/07 10:52:12;;;;;;;1.83;0.60;;;26.40;93.80;;;;;;4976713;28;20566;-75
2022/07/07 10:54:40;;;;;;;2.40;0.70;;;26.30;93.60;;;;;;4976133;28;21219;-76
2022/07/07 10:57:10;;;;;;;2.13;0.70;;;26.20;93.40;;;;;;4972772;28;20928;-75
2022/07/07 11:00:04;;;;;;;2.43;0.57;;;26.00;93.20;;;;;;4973542;28;21220;-76
2022/07/07 11:02:47;;;;;;;3.30;1.27;;;25.70;93.30;;;;;;4956763;28;21119;-75
2022/07/07 11:05:12;;;;;;;1.50;0.60;;;25.60;93.50;;;;;;4973263;28;20633;-75
2022/07/07 11:07:39;;;;;;;2.33;0.53;;;25.40;93.40;;;;;;4973454;28;20935;-75
2022/07/07 11:10:10;;;;;;;1.20;0.50;;;25.30;93.40;;;;;;4973199;28;20183;-76
2022/07/07 11:12:44;;;;;;;2.53;0.60;;;25.30;94.20;;;;;;4943936;28;20597;-75
2022/07/07 11:15:22;;;;;;;1.73;0.47;;;25.40;94.80;;;;;;4993075;28;20612;-75
2022/07/07 11:17:57;;;;;;;2.17;0.50;;;25.70;94.80;;;;;;4992291;28;21125;-75
2022/07/07 11:20:25;;;;;;;2.33;0.73;;;25.80;93.90;;;;;;4992984;28;21042;-74
2022/07/07 11:23:04;;;;;;;1.60;0.43;;;25.90;93.70;;;;;;4960178;28;20578;-74
2022/07/07 11:25:30;;;;;;;6.30;0.70;;;25.90;93.00;;;;;;4993150;28;20629;-73
2022/07/07 11:27:56;;;;;;;1.60;0.50;;;25.70;92.60;;;;;;4993119;28;20929;-74
2022/07/07 11:30:24;;;;;;;2.47;0.50;;;25.40;92.50;;;;;;4975233;28;20191;-74
2022/07/07 11:32:50;;;;;;;3.40;0.70;;;25.10;92.60;;;;;;4994083;28;20582;-74
2022/07/07 11:35:17;;;;;;;1.30;0.50;;;24.70;92.90;;;;;;4992106;28;20574;-74
2022/07/07 11:37:46;;;;;;;3.53;0.70;;;24.30;93.20;;;;;;4993021;28;20673;-74
2022/07/07 11:40:12;;;;;;;1.50;0.60;;;24.00;93.70;;;;;;4974947;28;20606;-74
2022/07/07 11:42:39;;;;;;;3.87;0.80;;;23.70;94.20;;;;;;4975547;28;20573;-74
2022/07/07 11:45:17;;;;;;;2.33;0.60;;;23.50;94.60;;;;;;4976158;28;20807;-74
2022/07/07 11:47:43;;;;;;;2.57;0.70;;;23.40;95.20;;;;;;4992843;28;20581;-74
2022/07/07 11:50:09;;;;;;;2.23;0.60;;;23.30;95.70;;;;;;4974943;28;20644;-74
2022/07/07 11:52:35;;;;;;;2.60;0.70;;;23.30;96.00;;;;;;4992612;28;20175;-74
2022/07/07 11:55:05;;;;;;;1.93;0.60;;;23.30;96.30;;;;;;4992255;28;21194;-75
2022/07/07 11:57:37;;;;;;;2.80;0.70;;;23.50;96.70;;;;;;4992537;28;20197;-75
2022/07/07 12:00:21;;;;;;;2.10;0.70;;;23.60;96.80;;;;;;4992440;28;20951;-75
2022/07/07 12:02:53;;;;;;;1.90;0.67;;;23.70;97.10;;;;;;4989330;28;20582;-74
2022/07/07 12:05:24;;;;;;;2.53;0.50;;;23.90;97.30;;;;;;4991866;28;20724;-74
2022/07/07 12:08:02;;;;;;;2.20;0.70;;;24.10;97.00;;;;;;4992257;28;20945;-75
2022/07/07 12:10:35;;;;;;;1.87;0.67;;;24.10;96.70;;;;;;4993126;28;20593;-75
2022/07/07 12:13:06;;;;;;;2.80;0.70;;;24.20;96.00;;;;;;4991705;28;20578;-75
2022/07/07 12:15:48;;;;;;;3.40;0.50;;;24.10;95.60;;;;;;4974669;28;21278;-74
2022/07/07 12:18:24;;;;;;;2.47;0.53;;;23.90;95.30;;;;;;4991532;28;20582;-74
2022/07/07 12:21:01;;;;;;;3.00;0.50;;;23.80;95.40;;;;;;4957677;28;20597;-75
2022/07/07 12:23:27;;;;;;;6.70;2.60;;;23.60;95.40;;;;;;4991279;28;20578;-75
2022/07/07 12:26:08;;;;;;;2.93;0.50;;;23.50;95.50;;;;;;4974216;28;20629;-75
2022/07/07 12:28:35;;;;;;;2.90;0.60;;;23.40;95.90;;;;;;4974081;28;20572;-75
2022/07/07 12:31:03;;;;;;;1.40;0.50;;;23.40;96.10;;;;;;4957469;28;21019;-75
2022/07/07 12:33:38;;;;;;;2.10;0.50;;;23.30;96.40;;;;;;4996327;28;20582;-76
2022/07/07 12:36:14;;;;;;;3.47;0.70;;;23.40;96.80;;;;;;4974613;28;20644;-75
2022/07/07 12:38:47;;;;;;;3.60;0.60;;;23.50;96.70;;;;;;4991565;28;20562;-75
2022/07/07 12:41:42;;;;;;;2.07;0.60;;;23.60;96.30;;;;;;4991756;28;20988;-75
2022/07/07 12:44:27;;;;;;;1.60;0.60;;;23.70;96.60;;;;;;4982631;28;20661;-75
2022/07/07 12:46:58;;;;;;;3.20;0.67;;;24.00;97.00;;;;;;4973804;28;20650;-74
2022/07/07 12:49:24;;;;;;;1.90;0.77;;;24.20;96.60;;;;;;4991626;28;20666;-75
2022/07/07 12:51:51;;;;;;;3.20;0.80;;;24.40;96.70;;;;;;4991075;28;20610;-75
2022/07/07 12:54:21;;;;;;;1.50;0.70;;;24.50;96.60;;;;;;4990944;28;20579;-75
2022/07/07 12:56:56;;;;;;;3.43;0.77;;;24.60;96.20;;;;;;4974195;28;20582;-75
2022/07/07 12:59:21;;;;;;;2.00;0.90;;;24.60;96.10;;;;;;4988666;28;20704;-76
2022/07/07 13:01:52;;;;;;;3.90;1.17;;;24.50;96.10;;;;;;4991283;28;20578;-75